メインページ
METAR-TAF:

METAR-TAF

空港 :

レシフェ, ペルナンブーコ州, ブラジル

レシフェ/グアララペス・ジルベルト・フレイレ国際空港

緯度: 08-08S, 経度: 034-55W, 海抜: 19m

現時点の気象観測

当レポートは1時間0分前の05:00(UTC)に作成
南東の風 7kt
気温 26°C
湿度 79%
気圧 1011 hPa
視程10km以上
高度2500ftの雲はほとんどない

METAR: SBRF 250500Z 13007KT 9999 FEW025 26/22 Q1011

時間: 03:00 (06:00 UTC)

予報

当レポートは3時間0分前の03:00(UTC)に作成
予報は25日の 06時(UTC)から 26日の 06時(UTC)まで有効
東/南東の風 8kt
視程: 9000m
高度2000ftの雲は散在している
確率 40% :
25日の 08時(UTC)から 25日の 10時(UTC)まで一時的に
視程: 5000m
高度1700ftの千切れ雲あり
高度2500ftの雲はほとんどない, 塔状積雲.
にわか雨

TAF: SBRF 250300Z 2506/2606 11008KT 9000 SCT020 TN25/2509Z TX29/2515Z PROB40 TEMPO 2508/2510 5000 SHRA BKN017 FEW025TCU RMK PEI

4,000以上の空港の気象観測と天気予報(METAR報とTAF報)

利用可能な観測所は地図上に黄色い丸と赤い丸で示す。

丸の上にカーソルを重ねると観測所名を参照できる。

次にクリックすると気象観測と天気予報を参照できる。

マップの切り替え:黒色「×」印の緑ボタンをクリックして拡大、「-」印の緑ボタンをクリックして縮小、緑色の三角印をクリックして隣りの地図に切り替え


METAR-TAF: